sensor_id;sensor_type;location;lat;lon;timestamp;P1;durP1;ratioP1;P2;durP2;ratioP2
53903;SDS011;39812;52.430;16.936;2023-09-30T00:01:00;7.93;;;5.88;;
53903;SDS011;39812;52.430;16.936;2023-09-30T00:03:26;11.65;;;6.50;;
53903;SDS011;39812;52.430;16.936;2023-09-30T00:05:52;11.27;;;6.68;;
53903;SDS011;39812;52.430;16.936;2023-09-30T00:08:18;11.30;;;6.10;;
53903;SDS011;39812;52.430;16.936;2023-09-30T00:10:44;11.32;;;6.75;;
53903;SDS011;39812;52.430;16.936;2023-09-30T00:13:10;8.05;;;5.65;;
53903;SDS011;39812;52.430;16.936;2023-09-30T00:15:36;11.85;;;6.22;;
53903;SDS011;39812;52.430;16.936;2023-09-30T00:18:02;11.05;;;6.15;;
53903;SDS011;39812;52.430;16.936;2023-09-30T00:20:28;11.27;;;6.65;;
53903;SDS011;39812;52.430;16.936;2023-09-30T00:22:53;9.02;;;6.38;;
53903;SDS011;39812;52.430;16.936;2023-09-30T00:25:19;8.05;;;6.07;;
53903;SDS011;39812;52.430;16.936;2023-09-30T00:27:45;8.57;;;6.57;;
53903;SDS011;39812;52.430;16.936;2023-09-30T00:30:14;8.25;;;5.95;;
53903;SDS011;39812;52.430;16.936;2023-09-30T00:32:39;11.30;;;6.40;;
53903;SDS011;39812;52.430;16.936;2023-09-30T00:35:06;8.50;;;6.40;;
53903;SDS011;39812;52.430;16.936;2023-09-30T00:37:39;11.63;;;6.05;;
53903;SDS011;39812;52.430;16.936;2023-09-30T00:40:06;10.30;;;6.68;;
53903;SDS011;39812;52.430;16.936;2023-09-30T00:42:33;10.95;;;6.45;;
53903;SDS011;39812;52.430;16.936;2023-09-30T00:44:58;10.80;;;6.32;;
53903;SDS011;39812;52.430;16.936;2023-09-30T00:47:24;15.80;;;6.82;;
53903;SDS011;39812;52.430;16.936;2023-09-30T00:49:51;11.05;;;6.43;;
53903;SDS011;39812;52.430;16.936;2023-09-30T00:52:18;12.43;;;5.93;;
53903;SDS011;39812;52.430;16.936;2023-09-30T00:54:45;10.93;;;7.05;;
53903;SDS011;39812;52.430;16.936;2023-09-30T00:57:12;9.60;;;6.22;;
53903;SDS011;39812;52.430;16.936;2023-09-30T00:59:38;6.72;;;5.38;;
53903;SDS011;39812;52.430;16.936;2023-09-30T01:02:05;11.00;;;6.22;;
53903;SDS011;39812;52.430;16.936;2023-09-30T01:04:31;10.38;;;5.82;;
53903;SDS011;39812;52.430;16.936;2023-09-30T01:06:57;11.38;;;6.13;;
53903;SDS011;39812;52.430;16.936;2023-09-30T01:09:22;12.70;;;5.88;;
53903;SDS011;39812;52.430;16.936;2023-09-30T01:11:49;9.43;;;5.72;;
53903;SDS011;39812;52.430;16.936;2023-09-30T01:14:24;8.73;;;5.65;;
53903;SDS011;39812;52.430;16.936;2023-09-30T01:16:50;9.18;;;6.10;;
53903;SDS011;39812;52.430;16.936;2023-09-30T01:19:16;7.82;;;5.72;;
53903;SDS011;39812;52.430;16.936;2023-09-30T01:21:41;10.73;;;6.10;;
53903;SDS011;39812;52.430;16.936;2023-09-30T01:24:13;10.57;;;6.32;;
53903;SDS011;39812;52.430;16.936;2023-09-30T01:26:39;9.93;;;6.20;;
53903;SDS011;39812;52.430;16.936;2023-09-30T01:29:05;8.05;;;6.07;;
53903;SDS011;39812;52.430;16.936;2023-09-30T01:31:30;11.30;;;6.47;;
53903;SDS011;39812;52.430;16.936;2023-09-30T01:33:56;10.02;;;6.10;;
53903;SDS011;39812;52.430;16.936;2023-09-30T01:36:21;8.60;;;5.63;;
53903;SDS011;39812;52.430;16.936;2023-09-30T01:38:47;10.13;;;5.95;;
53903;SDS011;39812;52.430;16.936;2023-09-30T01:41:13;10.68;;;6.28;;
53903;SDS011;39812;52.430;16.936;2023-09-30T01:43:38;7.30;;;5.75;;
53903;SDS011;39812;52.430;16.936;2023-09-30T01:46:04;9.60;;;5.75;;
53903;SDS011;39812;52.430;16.936;2023-09-30T01:48:31;12.38;;;5.38;;
53903;SDS011;39812;52.430;16.936;2023-09-30T01:50:56;9.85;;;6.13;;
53903;SDS011;39812;52.430;16.936;2023-09-30T01:53:22;9.35;;;5.63;;
53903;SDS011;39812;52.430;16.936;2023-09-30T01:55:48;9.00;;;5.90;;
53903;SDS011;39812;52.430;16.936;2023-09-30T01:58:13;10.73;;;6.10;;
53903;SDS011;39812;52.430;16.936;2023-09-30T02:00:39;9.52;;;6.63;;
53903;SDS011;39812;52.430;16.936;2023-09-30T02:03:05;9.18;;;5.82;;
53903;SDS011;39812;52.430;16.936;2023-09-30T02:05:30;10.30;;;6.20;;
53903;SDS011;39812;52.430;16.936;2023-09-30T02:07:56;9.07;;;5.70;;
53903;SDS011;39812;52.430;16.936;2023-09-30T02:10:22;9.30;;;6.25;;
53903;SDS011;39812;52.430;16.936;2023-09-30T02:12:47;9.18;;;6.28;;
53903;SDS011;39812;52.430;16.936;2023-09-30T02:15:13;12.07;;;6.57;;
53903;SDS011;39812;52.430;16.936;2023-09-30T02:17:39;13.27;;;7.50;;
53903;SDS011;39812;52.430;16.936;2023-09-30T02:20:10;9.20;;;6.47;;
53903;SDS011;39812;52.430;16.936;2023-09-30T02:22:39;11.57;;;6.68;;
53903;SDS011;39812;52.430;16.936;2023-09-30T02:25:04;11.85;;;8.13;;
53903;SDS011;39812;52.430;16.936;2023-09-30T02:27:32;16.63;;;9.00;;
53903;SDS011;39812;52.430;16.936;2023-09-30T02:29:58;12.55;;;8.27;;
53903;SDS011;39812;52.430;16.936;2023-09-30T02:32:25;12.95;;;8.32;;
53903;SDS011;39812;52.430;16.936;2023-09-30T02:34:50;12.77;;;8.50;;
53903;SDS011;39812;52.430;16.936;2023-09-30T02:37:16;9.15;;;7.50;;
53903;SDS011;39812;52.430;16.936;2023-09-30T02:39:43;11.18;;;7.82;;
53903;SDS011;39812;52.430;16.936;2023-09-30T02:42:09;13.88;;;8.30;;
53903;SDS011;39812;52.430;16.936;2023-09-30T02:44:35;13.38;;;8.10;;
53903;SDS011;39812;52.430;16.936;2023-09-30T02:47:01;12.65;;;8.02;;
53903;SDS011;39812;52.430;16.936;2023-09-30T02:49:27;11.93;;;7.80;;
53903;SDS011;39812;52.430;16.936;2023-09-30T02:51:53;12.80;;;7.45;;
53903;SDS011;39812;52.430;16.936;2023-09-30T02:54:18;10.48;;;6.78;;
53903;SDS011;39812;52.430;16.936;2023-09-30T02:56:44;17.73;;;8.85;;
53903;SDS011;39812;52.430;16.936;2023-09-30T02:59:11;11.43;;;7.65;;
53903;SDS011;39812;52.430;16.936;2023-09-30T03:01:38;11.57;;;8.23;;
53903;SDS011;39812;52.430;16.936;2023-09-30T03:04:03;12.77;;;8.50;;
53903;SDS011;39812;52.430;16.936;2023-09-30T03:06:31;12.63;;;9.18;;
53903;SDS011;39812;52.430;16.936;2023-09-30T03:09:00;13.65;;;8.70;;
53903;SDS011;39812;52.430;16.936;2023-09-30T03:11:27;13.18;;;9.25;;
53903;SDS011;39812;52.430;16.936;2023-09-30T03:13:54;13.25;;;8.82;;
53903;SDS011;39812;52.430;16.936;2023-09-30T03:16:20;11.85;;;9.05;;
53903;SDS011;39812;52.430;16.936;2023-09-30T03:18:45;14.70;;;8.48;;
53903;SDS011;39812;52.430;16.936;2023-09-30T03:21:14;18.58;;;9.32;;
53903;SDS011;39812;52.430;16.936;2023-09-30T03:23:40;15.40;;;8.40;;
53903;SDS011;39812;52.430;16.936;2023-09-30T03:26:06;14.23;;;9.48;;
53903;SDS011;39812;52.430;16.936;2023-09-30T03:28:34;14.35;;;8.77;;
53903;SDS011;39812;52.430;16.936;2023-09-30T03:31:04;15.18;;;8.75;;
53903;SDS011;39812;52.430;16.936;2023-09-30T03:33:31;12.80;;;8.65;;
53903;SDS011;39812;52.430;16.936;2023-09-30T03:35:57;11.82;;;8.68;;
53903;SDS011;39812;52.430;16.936;2023-09-30T03:38:23;11.98;;;8.52;;
53903;SDS011;39812;52.430;16.936;2023-09-30T03:40:50;17.80;;;8.43;;
53903;SDS011;39812;52.430;16.936;2023-09-30T03:43:18;13.77;;;9.02;;
53903;SDS011;39812;52.430;16.936;2023-09-30T03:45:45;14.02;;;9.05;;
53903;SDS011;39812;52.430;16.936;2023-09-30T03:48:10;11.68;;;7.78;;
53903;SDS011;39812;52.430;16.936;2023-09-30T03:50:36;12.23;;;8.15;;
53903;SDS011;39812;52.430;16.936;2023-09-30T03:53:03;14.70;;;7.05;;
53903;SDS011;39812;52.430;16.936;2023-09-30T03:55:32;11.45;;;6.82;;
53903;SDS011;39812;52.430;16.936;2023-09-30T03:57:58;10.07;;;6.70;;
53903;SDS011;39812;52.430;16.936;2023-09-30T04:00:24;9.13;;;5.70;;
53903;SDS011;39812;52.430;16.936;2023-09-30T04:02:50;10.00;;;5.05;;
53903;SDS011;39812;52.430;16.936;2023-09-30T04:05:23;8.18;;;4.45;;
53903;SDS011;39812;52.430;16.936;2023-09-30T04:08:01;9.40;;;3.92;;
53903;SDS011;39812;52.430;16.936;2023-09-30T04:10:26;5.68;;;3.20;;
53903;SDS011;39812;52.430;16.936;2023-09-30T04:12:54;4.22;;;2.42;;
53903;SDS011;39812;52.430;16.936;2023-09-30T04:15:20;4.90;;;2.67;;
53903;SDS011;39812;52.430;16.936;2023-09-30T04:17:48;4.63;;;2.10;;
53903;SDS011;39812;52.430;16.936;2023-09-30T04:20:13;7.13;;;2.80;;
53903;SDS011;39812;52.430;16.936;2023-09-30T04:22:45;4.07;;;1.95;;
53903;SDS011;39812;52.430;16.936;2023-09-30T04:25:13;4.10;;;2.15;;
53903;SDS011;39812;52.430;16.936;2023-09-30T04:27:41;3.33;;;1.55;;
53903;SDS011;39812;52.430;16.936;2023-09-30T04:30:07;2.63;;;1.55;;
53903;SDS011;39812;52.430;16.936;2023-09-30T04:32:36;2.90;;;1.15;;
53903;SDS011;39812;52.430;16.936;2023-09-30T04:35:04;4.15;;;1.33;;
53903;SDS011;39812;52.430;16.936;2023-09-30T04:37:30;5.60;;;1.67;;
53903;SDS011;39812;52.430;16.936;2023-09-30T04:39:56;3.75;;;1.60;;
53903;SDS011;39812;52.430;16.936;2023-09-30T04:42:23;7.85;;;1.67;;
53903;SDS011;39812;52.430;16.936;2023-09-30T04:44:50;5.80;;;1.52;;
53903;SDS011;39812;52.430;16.936;2023-09-30T04:47:17;5.93;;;1.65;;
53903;SDS011;39812;52.430;16.936;2023-09-30T04:49:44;4.80;;;1.90;;
53903;SDS011;39812;52.430;16.936;2023-09-30T04:52:09;5.72;;;1.92;;
53903;SDS011;39812;52.430;16.936;2023-09-30T04:54:36;3.47;;;1.92;;
53903;SDS011;39812;52.430;16.936;2023-09-30T04:57:02;5.55;;;1.60;;
53903;SDS011;39812;52.430;16.936;2023-09-30T04:59:27;5.45;;;1.55;;
53903;SDS011;39812;52.430;16.936;2023-09-30T05:01:54;5.88;;;2.00;;
53903;SDS011;39812;52.430;16.936;2023-09-30T05:04:21;5.97;;;1.85;;
53903;SDS011;39812;52.430;16.936;2023-09-30T05:06:48;4.38;;;2.00;;
53903;SDS011;39812;52.430;16.936;2023-09-30T05:09:14;5.53;;;1.92;;
53903;SDS011;39812;52.430;16.936;2023-09-30T05:11:40;7.72;;;1.42;;
53903;SDS011;39812;52.430;16.936;2023-09-30T05:14:05;4.57;;;1.80;;
53903;SDS011;39812;52.430;16.936;2023-09-30T05:16:31;5.63;;;2.15;;
53903;SDS011;39812;52.430;16.936;2023-09-30T05:18:57;8.95;;;2.17;;
53903;SDS011;39812;52.430;16.936;2023-09-30T05:21:22;8.07;;;2.20;;
53903;SDS011;39812;52.430;16.936;2023-09-30T05:23:48;7.20;;;2.38;;
53903;SDS011;39812;52.430;16.936;2023-09-30T05:26:14;8.35;;;2.50;;
53903;SDS011;39812;52.430;16.936;2023-09-30T05:28:40;7.25;;;3.13;;
53903;SDS011;39812;52.430;16.936;2023-09-30T05:31:06;7.45;;;2.75;;
53903;SDS011;39812;52.430;16.936;2023-09-30T05:33:32;8.77;;;2.72;;
53903;SDS011;39812;52.430;16.936;2023-09-30T05:35:58;9.13;;;2.80;;
53903;SDS011;39812;52.430;16.936;2023-09-30T05:38:24;8.52;;;2.67;;
53903;SDS011;39812;52.430;16.936;2023-09-30T05:40:51;7.15;;;2.88;;
53903;SDS011;39812;52.430;16.936;2023-09-30T05:43:17;13.05;;;2.83;;
53903;SDS011;39812;52.430;16.936;2023-09-30T05:45:42;8.45;;;2.80;;
53903;SDS011;39812;52.430;16.936;2023-09-30T05:48:15;12.27;;;2.90;;
53903;SDS011;39812;52.430;16.936;2023-09-30T05:50:41;7.97;;;2.17;;
53903;SDS011;39812;52.430;16.936;2023-09-30T05:53:07;10.82;;;2.63;;
53903;SDS011;39812;52.430;16.936;2023-09-30T05:55:35;7.18;;;2.15;;
53903;SDS011;39812;52.430;16.936;2023-09-30T05:58:02;12.18;;;2.75;;
53903;SDS011;39812;52.430;16.936;2023-09-30T06:00:28;8.25;;;2.53;;
53903;SDS011;39812;52.430;16.936;2023-09-30T06:02:55;10.80;;;2.65;;
53903;SDS011;39812;52.430;16.936;2023-09-30T06:05:24;9.30;;;2.40;;
53903;SDS011;39812;52.430;16.936;2023-09-30T06:07:57;10.40;;;2.50;;
53903;SDS011;39812;52.430;16.936;2023-09-30T06:10:24;8.15;;;1.95;;
53903;SDS011;39812;52.430;16.936;2023-09-30T06:12:51;8.70;;;2.72;;
53903;SDS011;39812;52.430;16.936;2023-09-30T06:15:20;9.93;;;2.40;;
53903;SDS011;39812;52.430;16.936;2023-09-30T06:17:51;6.53;;;2.60;;
53903;SDS011;39812;52.430;16.936;2023-09-30T06:20:17;10.43;;;2.15;;
53903;SDS011;39812;52.430;16.936;2023-09-30T06:22:44;9.55;;;2.50;;
53903;SDS011;39812;52.430;16.936;2023-09-30T06:25:14;9.60;;;2.17;;
53903;SDS011;39812;52.430;16.936;2023-09-30T06:27:41;7.97;;;2.53;;
53903;SDS011;39812;52.430;16.936;2023-09-30T06:30:08;10.75;;;2.90;;
53903;SDS011;39812;52.430;16.936;2023-09-30T06:32:34;15.57;;;3.30;;
53903;SDS011;39812;52.430;16.936;2023-09-30T06:35:03;7.32;;;2.00;;
53903;SDS011;39812;52.430;16.936;2023-09-30T06:37:31;10.57;;;2.20;;
53903;SDS011;39812;52.430;16.936;2023-09-30T06:39:57;12.35;;;2.42;;
53903;SDS011;39812;52.430;16.936;2023-09-30T06:42:24;12.00;;;3.13;;
53903;SDS011;39812;52.430;16.936;2023-09-30T06:44:50;15.48;;;2.42;;
53903;SDS011;39812;52.430;16.936;2023-09-30T06:47:17;12.18;;;2.45;;
53903;SDS011;39812;52.430;16.936;2023-09-30T06:49:43;8.88;;;2.42;;
53903;SDS011;39812;52.430;16.936;2023-09-30T06:52:10;9.75;;;2.45;;
53903;SDS011;39812;52.430;16.936;2023-09-30T06:54:35;11.63;;;3.28;;
53903;SDS011;39812;52.430;16.936;2023-09-30T06:57:02;9.15;;;2.45;;
53903;SDS011;39812;52.430;16.936;2023-09-30T06:59:27;7.53;;;2.13;;
53903;SDS011;39812;52.430;16.936;2023-09-30T07:01:53;12.65;;;2.55;;
53903;SDS011;39812;52.430;16.936;2023-09-30T07:04:19;11.38;;;2.55;;
53903;SDS011;39812;52.430;16.936;2023-09-30T07:06:46;11.98;;;3.38;;
53903;SDS011;39812;52.430;16.936;2023-09-30T07:09:12;13.40;;;3.03;;
53903;SDS011;39812;52.430;16.936;2023-09-30T07:11:38;17.55;;;2.40;;
53903;SDS011;39812;52.430;16.936;2023-09-30T07:14:03;11.18;;;2.70;;
53903;SDS011;39812;52.430;16.936;2023-09-30T07:16:29;9.65;;;3.05;;
53903;SDS011;39812;52.430;16.936;2023-09-30T07:18:55;12.93;;;2.90;;
53903;SDS011;39812;52.430;16.936;2023-09-30T07:21:21;12.80;;;2.92;;
53903;SDS011;39812;52.430;16.936;2023-09-30T07:23:46;13.00;;;3.03;;
53903;SDS011;39812;52.430;16.936;2023-09-30T07:26:13;8.25;;;2.40;;
53903;SDS011;39812;52.430;16.936;2023-09-30T07:28:39;9.45;;;2.83;;
53903;SDS011;39812;52.430;16.936;2023-09-30T07:31:05;13.20;;;2.63;;
53903;SDS011;39812;52.430;16.936;2023-09-30T07:33:31;6.15;;;2.42;;
53903;SDS011;39812;52.430;16.936;2023-09-30T07:35:57;11.98;;;2.55;;
53903;SDS011;39812;52.430;16.936;2023-09-30T07:38:22;10.43;;;2.55;;
53903;SDS011;39812;52.430;16.936;2023-09-30T07:40:48;11.80;;;3.25;;
53903;SDS011;39812;52.430;16.936;2023-09-30T07:43:14;10.23;;;2.45;;
53903;SDS011;39812;52.430;16.936;2023-09-30T07:45:40;8.65;;;3.20;;
53903;SDS011;39812;52.430;16.936;2023-09-30T07:48:08;12.30;;;2.60;;
53903;SDS011;39812;52.430;16.936;2023-09-30T07:50:35;13.82;;;3.10;;
53903;SDS011;39812;52.430;16.936;2023-09-30T07:53:01;19.00;;;3.05;;
53903;SDS011;39812;52.430;16.936;2023-09-30T07:55:27;10.73;;;2.90;;
53903;SDS011;39812;52.430;16.936;2023-09-30T07:57:53;13.50;;;2.63;;
53903;SDS011;39812;52.430;16.936;2023-09-30T08:00:19;8.13;;;2.40;;
53903;SDS011;39812;52.430;16.936;2023-09-30T08:02:46;11.10;;;3.00;;
53903;SDS011;39812;52.430;16.936;2023-09-30T08:05:13;12.75;;;2.33;;
53903;SDS011;39812;52.430;16.936;2023-09-30T08:07:38;11.02;;;2.30;;
53903;SDS011;39812;52.430;16.936;2023-09-30T08:10:04;7.55;;;2.03;;
53903;SDS011;39812;52.430;16.936;2023-09-30T08:12:31;12.95;;;3.45;;
53903;SDS011;39812;52.430;16.936;2023-09-30T08:14:57;8.98;;;2.42;;
53903;SDS011;39812;52.430;16.936;2023-09-30T08:17:23;12.25;;;3.00;;
53903;SDS011;39812;52.430;16.936;2023-09-30T08:19:49;13.80;;;2.13;;
53903;SDS011;39812;52.430;16.936;2023-09-30T08:22:14;9.32;;;2.20;;
53903;SDS011;39812;52.430;16.936;2023-09-30T08:24:40;11.02;;;2.35;;
53903;SDS011;39812;52.430;16.936;2023-09-30T08:27:05;10.32;;;2.63;;
53903;SDS011;39812;52.430;16.936;2023-09-30T08:29:34;11.75;;;2.63;;
53903;SDS011;39812;52.430;16.936;2023-09-30T08:32:02;12.82;;;3.05;;
53903;SDS011;39812;52.430;16.936;2023-09-30T08:34:28;10.68;;;2.63;;
53903;SDS011;39812;52.430;16.936;2023-09-30T08:36:55;18.83;;;2.53;;
53903;SDS011;39812;52.430;16.936;2023-09-30T08:39:20;12.10;;;2.83;;
53903;SDS011;39812;52.430;16.936;2023-09-30T08:41:46;16.75;;;2.90;;
53903;SDS011;39812;52.430;16.936;2023-09-30T08:44:12;11.80;;;2.58;;
53903;SDS011;39812;52.430;16.936;2023-09-30T08:46:38;12.25;;;2.63;;
53903;SDS011;39812;52.430;16.936;2023-09-30T08:49:05;9.02;;;2.45;;
53903;SDS011;39812;52.430;16.936;2023-09-30T08:51:32;8.38;;;2.20;;
53903;SDS011;39812;52.430;16.936;2023-09-30T08:53:58;12.95;;;2.33;;
53903;SDS011;39812;52.430;16.936;2023-09-30T08:56:28;6.63;;;2.08;;
53903;SDS011;39812;52.430;16.936;2023-09-30T08:58:58;7.63;;;1.98;;
53903;SDS011;39812;52.430;16.936;2023-09-30T09:01:28;9.23;;;2.30;;
53903;SDS011;39812;52.430;16.936;2023-09-30T09:03:55;14.85;;;2.72;;
53903;SDS011;39812;52.430;16.936;2023-09-30T09:06:22;10.73;;;2.55;;
53903;SDS011;39812;52.430;16.936;2023-09-30T09:08:49;15.00;;;2.65;;
53903;SDS011;39812;52.430;16.936;2023-09-30T09:11:15;7.03;;;2.30;;
53903;SDS011;39812;52.430;16.936;2023-09-30T09:13:49;6.22;;;2.05;;
53903;SDS011;39812;52.430;16.936;2023-09-30T09:16:17;8.40;;;2.03;;
53903;SDS011;39812;52.430;16.936;2023-09-30T09:18:44;8.80;;;1.90;;
53903;SDS011;39812;52.430;16.936;2023-09-30T09:21:12;7.25;;;2.30;;
53903;SDS011;39812;52.430;16.936;2023-09-30T09:23:48;7.88;;;2.03;;
53903;SDS011;39812;52.430;16.936;2023-09-30T09:26:27;7.55;;;1.80;;
53903;SDS011;39812;52.430;16.936;2023-09-30T09:28:58;11.50;;;2.80;;
53903;SDS011;39812;52.430;16.936;2023-09-30T09:31:30;12.65;;;2.25;;
53903;SDS011;39812;52.430;16.936;2023-09-30T09:33:59;13.45;;;2.85;;
53903;SDS011;39812;52.430;16.936;2023-09-30T09:36:44;7.10;;;2.63;;
53903;SDS011;39812;52.430;16.936;2023-09-30T09:39:13;7.93;;;1.70;;
53903;SDS011;39812;52.430;16.936;2023-09-30T09:41:49;9.77;;;2.08;;
53903;SDS011;39812;52.430;16.936;2023-09-30T09:44:19;7.82;;;1.92;;
53903;SDS011;39812;52.430;16.936;2023-09-30T09:46:47;6.55;;;1.63;;
53903;SDS011;39812;52.430;16.936;2023-09-30T09:49:14;5.10;;;1.58;;
53903;SDS011;39812;52.430;16.936;2023-09-30T09:51:42;5.03;;;1.80;;
53903;SDS011;39812;52.430;16.936;2023-09-30T09:54:10;7.85;;;1.67;;
53903;SDS011;39812;52.430;16.936;2023-09-30T09:56:36;6.07;;;1.70;;
53903;SDS011;39812;52.430;16.936;2023-09-30T09:59:04;10.38;;;2.13;;
53903;SDS011;39812;52.430;16.936;2023-09-30T10:01:31;5.60;;;1.60;;
53903;SDS011;39812;52.430;16.936;2023-09-30T10:03:59;8.98;;;2.47;;
53903;SDS011;39812;52.430;16.936;2023-09-30T10:06:26;9.60;;;1.70;;
53903;SDS011;39812;52.430;16.936;2023-09-30T10:08:53;5.55;;;2.00;;
53903;SDS011;39812;52.430;16.936;2023-09-30T10:11:22;5.47;;;1.40;;
53903;SDS011;39812;52.430;16.936;2023-09-30T10:13:57;7.80;;;1.60;;
53903;SDS011;39812;52.430;16.936;2023-09-30T10:21:32;5.07;;;1.67;;
53903;SDS011;39812;52.430;16.936;2023-09-30T10:36:01;8.80;;;1.75;;
53903;SDS011;39812;52.430;16.936;2023-09-30T10:40:55;8.77;;;1.33;;
53903;SDS011;39812;52.430;16.936;2023-09-30T10:43:30;6.50;;;1.60;;
53903;SDS011;39812;52.430;16.936;2023-09-30T10:45:56;6.97;;;1.45;;
53903;SDS011;39812;52.430;16.936;2023-09-30T10:51:11;6.97;;;1.58;;
53903;SDS011;39812;52.430;16.936;2023-09-30T10:56:13;5.82;;;1.80;;
53903;SDS011;39812;52.430;16.936;2023-09-30T11:01:19;5.32;;;1.92;;
53903;SDS011;39812;52.430;16.936;2023-09-30T11:03:46;8.63;;;1.60;;
53903;SDS011;39812;52.430;16.936;2023-09-30T11:06:14;3.92;;;1.30;;
53903;SDS011;39812;52.430;16.936;2023-09-30T11:08:55;6.97;;;2.08;;
53903;SDS011;39812;52.430;16.936;2023-09-30T11:14:02;7.18;;;1.60;;
53903;SDS011;39812;52.430;16.936;2023-09-30T11:16:39;5.93;;;1.20;;
53903;SDS011;39812;52.430;16.936;2023-09-30T11:19:06;6.10;;;1.70;;
53903;SDS011;39812;52.430;16.936;2023-09-30T11:21:33;7.25;;;1.55;;
53903;SDS011;39812;52.430;16.936;2023-09-30T11:24:00;8.10;;;1.90;;
53903;SDS011;39812;52.430;16.936;2023-09-30T11:26:30;8.98;;;1.63;;
53903;SDS011;39812;52.430;16.936;2023-09-30T11:29:32;4.50;;;1.33;;
53903;SDS011;39812;52.430;16.936;2023-09-30T11:31:51;6.97;;;1.77;;
53903;SDS011;39812;52.430;16.936;2023-09-30T11:34:17;6.45;;;1.80;;
53903;SDS011;39812;52.430;16.936;2023-09-30T11:36:51;7.93;;;1.67;;
53903;SDS011;39812;52.430;16.936;2023-09-30T11:39:26;6.95;;;1.73;;
53903;SDS011;39812;52.430;16.936;2023-09-30T11:41:52;7.43;;;1.48;;
53903;SDS011;39812;52.430;16.936;2023-09-30T11:44:20;7.68;;;2.00;;
53903;SDS011;39812;52.430;16.936;2023-09-30T11:49:33;6.88;;;1.50;;
53903;SDS011;39812;52.430;16.936;2023-09-30T11:52:09;13.40;;;1.77;;
53903;SDS011;39812;52.430;16.936;2023-09-30T11:54:40;5.60;;;1.77;;
53903;SDS011;39812;52.430;16.936;2023-09-30T11:57:12;7.63;;;1.50;;
53903;SDS011;39812;52.430;16.936;2023-09-30T11:59:42;8.57;;;1.55;;
53903;SDS011;39812;52.430;16.936;2023-09-30T12:02:10;7.35;;;1.65;;
53903;SDS011;39812;52.430;16.936;2023-09-30T12:04:43;4.20;;;1.60;;
53903;SDS011;39812;52.430;16.936;2023-09-30T12:07:09;3.97;;;1.20;;
53903;SDS011;39812;52.430;16.936;2023-09-30T12:09:35;6.55;;;1.75;;
53903;SDS011;39812;52.430;16.936;2023-09-30T12:12:05;8.98;;;1.52;;
53903;SDS011;39812;52.430;16.936;2023-09-30T12:14:35;4.18;;;1.50;;
53903;SDS011;39812;52.430;16.936;2023-09-30T12:17:00;8.30;;;1.88;;
53903;SDS011;39812;52.430;16.936;2023-09-30T12:19:26;8.52;;;1.88;;
53903;SDS011;39812;52.430;16.936;2023-09-30T12:21:51;7.35;;;2.00;;
53903;SDS011;39812;52.430;16.936;2023-09-30T12:24:17;8.02;;;1.75;;
53903;SDS011;39812;52.430;16.936;2023-09-30T12:26:49;6.03;;;1.52;;
53903;SDS011;39812;52.430;16.936;2023-09-30T12:29:20;9.77;;;1.58;;
53903;SDS011;39812;52.430;16.936;2023-09-30T12:31:48;8.05;;;1.88;;
53903;SDS011;39812;52.430;16.936;2023-09-30T12:34:15;8.75;;;1.70;;
53903;SDS011;39812;52.430;16.936;2023-09-30T12:36:41;7.75;;;1.73;;
53903;SDS011;39812;52.430;16.936;2023-09-30T12:39:11;7.38;;;1.45;;
53903;SDS011;39812;52.430;16.936;2023-09-30T12:41:42;5.70;;;2.20;;
53903;SDS011;39812;52.430;16.936;2023-09-30T12:44:09;5.72;;;1.40;;
53903;SDS011;39812;52.430;16.936;2023-09-30T12:46:36;4.57;;;1.33;;
53903;SDS011;39812;52.430;16.936;2023-09-30T12:49:04;6.90;;;1.60;;
53903;SDS011;39812;52.430;16.936;2023-09-30T12:51:30;6.88;;;1.60;;
53903;SDS011;39812;52.430;16.936;2023-09-30T12:53:56;8.00;;;1.73;;
53903;SDS011;39812;52.430;16.936;2023-09-30T12:56:23;6.70;;;1.58;;
53903;SDS011;39812;52.430;16.936;2023-09-30T12:58:48;3.97;;;1.45;;
53903;SDS011;39812;52.430;16.936;2023-09-30T13:01:14;4.38;;;1.42;;
53903;SDS011;39812;52.430;16.936;2023-09-30T13:03:41;5.00;;;1.67;;
53903;SDS011;39812;52.430;16.936;2023-09-30T13:06:06;8.75;;;1.73;;
53903;SDS011;39812;52.430;16.936;2023-09-30T13:08:32;6.68;;;1.80;;
53903;SDS011;39812;52.430;16.936;2023-09-30T13:11:02;7.57;;;1.88;;
53903;SDS011;39812;52.430;16.936;2023-09-30T13:13:31;5.80;;;1.83;;
53903;SDS011;39812;52.430;16.936;2023-09-30T13:15:58;6.10;;;1.60;;
53903;SDS011;39812;52.430;16.936;2023-09-30T13:18:30;9.75;;;1.70;;
53903;SDS011;39812;52.430;16.936;2023-09-30T13:20:56;7.28;;;1.88;;
53903;SDS011;39812;52.430;16.936;2023-09-30T13:23:22;4.20;;;1.30;;
53903;SDS011;39812;52.430;16.936;2023-09-30T13:25:48;4.97;;;1.25;;
53903;SDS011;39812;52.430;16.936;2023-09-30T13:28:13;4.25;;;1.48;;
53903;SDS011;39812;52.430;16.936;2023-09-30T13:30:39;5.18;;;1.20;;
53903;SDS011;39812;52.430;16.936;2023-09-30T13:33:05;6.88;;;1.88;;
53903;SDS011;39812;52.430;16.936;2023-09-30T13:35:31;8.77;;;1.55;;
53903;SDS011;39812;52.430;16.936;2023-09-30T13:37:57;4.43;;;1.40;;
53903;SDS011;39812;52.430;16.936;2023-09-30T13:40:23;5.80;;;1.10;;
53903;SDS011;39812;52.430;16.936;2023-09-30T13:42:48;4.53;;;1.50;;
53903;SDS011;39812;52.430;16.936;2023-09-30T13:45:14;6.53;;;1.50;;
53903;SDS011;39812;52.430;16.936;2023-09-30T13:47:42;5.88;;;1.30;;
53903;SDS011;39812;52.430;16.936;2023-09-30T13:50:08;5.57;;;1.50;;
53903;SDS011;39812;52.430;16.936;2023-09-30T13:52:34;7.32;;;1.80;;
53903;SDS011;39812;52.430;16.936;2023-09-30T13:55:00;3.65;;;1.35;;
53903;SDS011;39812;52.430;16.936;2023-09-30T13:57:25;4.13;;;1.30;;
53903;SDS011;39812;52.430;16.936;2023-09-30T13:59:51;9.77;;;1.60;;
53903;SDS011;39812;52.430;16.936;2023-09-30T14:02:17;3.85;;;1.30;;
53903;SDS011;39812;52.430;16.936;2023-09-30T14:04:42;11.23;;;1.70;;
53903;SDS011;39812;52.430;16.936;2023-09-30T14:07:09;6.95;;;2.03;;
53903;SDS011;39812;52.430;16.936;2023-09-30T14:09:34;3.20;;;1.33;;
53903;SDS011;39812;52.430;16.936;2023-09-30T14:12:00;6.03;;;1.80;;
53903;SDS011;39812;52.430;16.936;2023-09-30T14:14:26;6.55;;;1.65;;
53903;SDS011;39812;52.430;16.936;2023-09-30T14:16:51;4.75;;;1.35;;
53903;SDS011;39812;52.430;16.936;2023-09-30T14:19:17;7.45;;;1.60;;
53903;SDS011;39812;52.430;16.936;2023-09-30T14:21:43;5.47;;;1.60;;
53903;SDS011;39812;52.430;16.936;2023-09-30T14:24:08;6.80;;;1.85;;
53903;SDS011;39812;52.430;16.936;2023-09-30T14:26:35;6.88;;;2.00;;
53903;SDS011;39812;52.430;16.936;2023-09-30T14:29:01;6.72;;;2.20;;
53903;SDS011;39812;52.430;16.936;2023-09-30T14:31:27;5.93;;;1.40;;
53903;SDS011;39812;52.430;16.936;2023-09-30T14:33:52;6.57;;;1.33;;
53903;SDS011;39812;52.430;16.936;2023-09-30T14:36:18;4.28;;;1.35;;
53903;SDS011;39812;52.430;16.936;2023-09-30T14:38:44;6.70;;;1.98;;
53903;SDS011;39812;52.430;16.936;2023-09-30T14:41:10;4.97;;;1.73;;
53903;SDS011;39812;52.430;16.936;2023-09-30T14:43:39;9.32;;;1.70;;
53903;SDS011;39812;52.430;16.936;2023-09-30T14:46:05;6.25;;;1.23;;
53903;SDS011;39812;52.430;16.936;2023-09-30T14:48:31;7.88;;;1.80;;
53903;SDS011;39812;52.430;16.936;2023-09-30T14:50:57;6.03;;;1.45;;
53903;SDS011;39812;52.430;16.936;2023-09-30T14:53:23;8.57;;;1.75;;
53903;SDS011;39812;52.430;16.936;2023-09-30T14:55:49;6.82;;;1.40;;
53903;SDS011;39812;52.430;16.936;2023-09-30T14:58:15;6.43;;;1.50;;
53903;SDS011;39812;52.430;16.936;2023-09-30T15:00:43;10.23;;;2.42;;
53903;SDS011;39812;52.430;16.936;2023-09-30T15:03:08;7.38;;;2.05;;